Time;durP1;ratioP1;P1;durP2;ratioP2;P2;SDS_P1;SDS_P2;PMS_P1;PMS_P2;Temp;Humidity;BMP_temperature;BMP_pressure;BME280_temperature;BME280_humidity;BME280_pressure;Samples;Min_cycle;Max_cycle;Signal;HPM_P1;HPM_P2
2023/11/25 00:07:50;;;;;;;7.47;1.40;;;6.40;1.00;;;;;;20724254;28;20034;-48
2023/11/25 00:17:54;;;;;;;8.40;1.90;;;6.20;1.00;;;;;;20711062;28;20472;-48
2023/11/25 00:27:55;;;;;;;12.43;2.00;;;6.00;1.00;;;;;;20755742;28;20050;-47
2023/11/25 00:37:56;;;;;;;14.50;1.80;;;5.90;1.00;;;;;;20756970;28;20046;-47
2023/11/25 00:47:57;;;;;;;10.52;1.33;;;5.80;1.00;;;;;;20756121;28;20468;-48
2023/11/25 00:57:58;;;;;;;12.55;2.03;;;5.60;1.00;;;;;;20763833;28;20530;-48
2023/11/25 01:07:58;;;;;;;11.27;2.15;;;5.60;5.30;;;;;;20751902;28;20056;-48
2023/11/25 01:17:59;;;;;;;7.35;1.73;;;5.40;3.90;;;;;;20763599;28;20041;-48
2023/11/25 01:27:59;;;;;;;7.18;1.40;;;5.10;7.80;;;;;;20753475;28;20045;-48
2023/11/25 01:38:00;;;;;;;9.05;1.38;;;4.80;12.20;;;;;;20754908;28;20390;-48
2023/11/25 01:48:02;;;;;;;6.35;1.35;;;4.50;14.00;;;;;;20754057;28;20053;-48
2023/11/25 01:58:04;;;;;;;10.65;1.48;;;4.30;22.00;;;;;;20742016;28;20443;-47
2023/11/25 02:08:07;;;;;;;8.80;2.13;;;4.30;23.30;;;;;;20769201;28;20506;-47
2023/11/25 02:18:07;;;;;;;11.68;1.50;;;4.10;27.50;;;;;;20759611;28;20037;-47
2023/11/25 02:28:08;;;;;;;7.97;1.77;;;4.00;27.30;;;;;;20755577;28;20507;-47
2023/11/25 02:38:10;;;;;;;10.65;1.98;;;4.00;37.20;;;;;;20763288;28;20049;-47
2023/11/25 02:48:15;;;;;;;18.20;2.25;;;4.10;47.20;;;;;;20760237;28;20045;-48
2023/11/25 02:58:17;;;;;;;10.93;1.85;;;4.10;43.80;;;;;;20770965;28;20116;-48
2023/11/25 03:08:17;;;;;;;14.55;1.65;;;4.10;33.30;;;;;;20751230;28;20533;-48
2023/11/25 03:18:18;;;;;;;7.10;1.60;;;4.00;32.80;;;;;;20744642;28;20658;-48
2023/11/25 03:28:19;;;;;;;14.73;1.80;;;3.90;28.90;;;;;;20702446;28;20046;-48
2023/11/25 03:38:22;;;;;;;9.30;1.45;;;3.90;33.10;;;;;;20696683;28;20464;-47
2023/11/25 03:48:23;;;;;;;12.55;2.03;;;4.00;45.50;;;;;;20748445;28;20057;-47
2023/11/25 03:58:24;;;;;;;14.90;1.60;;;4.60;49.20;;;;;;20754725;28;20046;-47
2023/11/25 04:08:24;;;;;;;9.13;0.90;;;5.00;47.20;;;;;;20708296;28;20308;-48
2023/11/25 04:18:25;;;;;;;0.98;0.28;;;5.20;47.90;;;;;;20674990;28;20041;-47
2023/11/25 04:28:26;;;;;;;0.60;0.10;;;5.20;58.00;;;;;;20722560;28;20382;-47
2023/11/25 04:38:26;;;;;;;3.45;0.30;;;5.10;63.70;;;;;;20670890;28;20076;-47
2023/11/25 04:48:27;;;;;;;5.70;0.47;;;4.90;77.60;;;;;;20668773;28;20136;-48
2023/11/25 04:58:27;;;;;;;5.97;0.43;;;5.00;95.10;;;;;;20707194;28;20558;-47
2023/11/25 05:08:29;;;;;;;4.90;0.40;;;5.10;89.60;;;;;;20728274;28;20073;-47
2023/11/25 05:18:30;;;;;;;2.75;1.00;;;5.00;96.50;;;;;;20669480;28;20893;-48
2023/11/25 05:28:30;;;;;;;4.55;0.52;;;4.70;99.90;;;;;;20682620;28;20050;-48
2023/11/25 05:38:31;;;;;;;2.00;0.50;;;4.60;99.90;;;;;;20692663;28;20138;-47
2023/11/25 05:48:32;;;;;;;5.82;0.50;;;5.00;99.90;;;;;;20701977;28;20739;-47
2023/11/25 05:58:32;;;;;;;3.30;0.50;;;5.00;97.20;;;;;;20686774;28;20053;-47
2023/11/25 06:08:35;;;;;;;4.40;0.82;;;4.90;99.90;;;;;;20683446;28;20042;-47
2023/11/25 06:18:36;;;;;;;3.58;0.55;;;5.10;73.50;;;;;;20760797;28;20049;-47
2023/11/25 06:28:41;;;;;;;4.93;0.60;;;5.10;52.60;;;;;;20772465;28;20319;-48
2023/11/25 06:38:41;;;;;;;5.20;0.88;;;4.80;47.50;;;;;;20765312;28;20037;-48
2023/11/25 06:48:42;;;;;;;5.25;1.17;;;4.50;65.90;;;;;;20755231;28;20037;-48
2023/11/25 06:58:42;;;;;;;6.93;1.08;;;4.70;90.20;;;;;;20760976;28;20132;-48
2023/11/25 07:08:44;;;;;;;5.50;0.90;;;5.00;93.10;;;;;;20762369;28;20116;-47
2023/11/25 07:18:45;;;;;;;6.35;0.95;;;5.30;91.20;;;;;;20716401;28;20068;-47
2023/11/25 07:28:46;;;;;;;4.32;0.57;;;5.40;91.30;;;;;;20757780;28;20492;-47
2023/11/25 07:38:47;;;;;;;3.40;0.50;;;5.80;51.50;;;;;;20758388;28;20039;-47
2023/11/25 07:48:48;;;;;;;2.70;0.43;;;5.70;39.70;;;;;;20748304;28;20189;-47
2023/11/25 07:58:49;;;;;;;4.25;0.50;;;5.60;30.80;;;;;;20766857;28;20395;-47
2023/11/25 08:08:50;;;;;;;8.25;1.20;;;5.90;26.70;;;;;;20769485;28;20269;-47
2023/11/25 08:18:51;;;;;;;7.53;0.85;;;5.80;39.00;;;;;;20764366;28;20030;-47
2023/11/25 08:28:52;;;;;;;6.05;0.80;;;5.60;50.40;;;;;;20758027;28;20042;-47
2023/11/25 08:38:56;;;;;;;4.00;0.88;;;5.70;60.70;;;;;;20709576;28;20297;-48
2023/11/25 08:48:57;;;;;;;5.30;0.75;;;5.70;72.90;;;;;;20745390;28;20354;-47
2023/11/25 08:59:01;;;;;;;6.30;1.17;;;5.80;94.60;;;;;;20710406;28;20056;-47
2023/11/25 09:09:01;;;;;;;4.93;0.95;;;5.80;91.50;;;;;;20658414;28;20048;-47
2023/11/25 09:19:02;;;;;;;12.00;1.50;;;5.70;97.50;;;;;;20670917;28;20046;-47
2023/11/25 09:29:03;;;;;;;7.63;0.88;;;5.80;99.90;;;;;;20662978;28;20421;-47
2023/11/25 09:39:04;;;;;;;4.95;1.02;;;5.90;99.90;;;;;;20657799;28;20069;-48
2023/11/25 09:49:07;;;;;;;9.13;1.30;;;6.10;99.90;;;;;;20641233;28;20127;-48
2023/11/25 09:59:09;;;;;;;7.18;1.00;;;6.30;99.90;;;;;;20695804;28;20041;-47
2023/11/25 10:09:10;;;;;;;10.02;1.85;;;6.40;99.90;;;;;;20658920;28;20072;-48
2023/11/25 10:19:21;;;;;;;5.35;0.85;;;6.90;98.30;;;;;;20599808;28;20050;-54
2023/11/25 10:29:24;;;;;;;12.52;1.30;;;7.30;80.30;;;;;;20662189;28;20053;-47
2023/11/25 10:39:26;;;;;;;11.60;1.10;;;7.30;79.90;;;;;;20724489;28;20108;-48
2023/11/25 10:49:31;;;;;;;9.75;1.15;;;7.00;79.70;;;;;;20743338;28;20049;-48
2023/11/25 10:59:39;;;;;;;6.53;1.23;;;7.20;93.40;;;;;;20740945;28;20079;-47
2023/11/25 11:09:45;;;;;;;8.25;1.35;;;7.20;89.80;;;;;;20689286;28;20049;-47
2023/11/25 11:19:50;;;;;;;7.72;1.67;;;7.10;93.70;;;;;;20669776;28;20519;-47
2023/11/25 11:30:20;;;;;;;9.82;1.27;;;7.00;98.30;;;;;;20683840;28;20140;-49
2023/11/25 11:40:22;;;;;;;6.10;0.93;;;7.10;99.90;;;;;;20683860;28;20120;-48
2023/11/25 11:50:26;;;;;;;9.60;0.80;;;7.10;72.50;;;;;;20682616;28;20107;-48
2023/11/25 12:00:29;;;;;;;8.35;1.00;;;7.80;67.40;;;;;;20695771;28;20046;-57
2023/11/25 12:10:29;;;;;;;5.68;0.75;;;7.90;15.90;;;;;;20664972;28;20410;-47
2023/11/25 12:20:31;;;;;;;7.60;0.80;;;8.20;1.60;;;;;;20661361;28;20151;-47
2023/11/25 12:30:35;;;;;;;9.18;0.85;;;8.60;1.00;;;;;;20669693;28;20060;-48
2023/11/25 12:40:36;;;;;;;4.00;0.57;;;8.40;1.00;;;;;;20669453;28;20077;-47
2023/11/25 12:50:58;;;;;;;4.32;0.77;;;7.80;1.30;;;;;;20635879;28;20456;-48
2023/11/25 13:00:59;;;;;;;11.32;2.05;;;8.00;2.90;;;;;;20662874;28;20489;-46
2023/11/25 13:11:03;;;;;;;8.57;1.20;;;8.40;1.00;;;;;;20657144;28;20049;-47
2023/11/25 13:21:07;;;;;;;8.15;1.30;;;8.20;1.00;;;;;;20735504;28;20085;-48
2023/11/25 13:31:07;;;;;;;9.80;1.38;;;8.30;22.30;;;;;;20716402;28;20057;-48
2023/11/25 13:41:08;;;;;;;8.93;1.10;;;8.50;18.50;;;;;;20668470;28;20417;-47
2023/11/25 13:51:08;;;;;;;11.93;1.42;;;8.70;1.30;;;;;;20702537;28;20163;-47
2023/11/25 14:01:11;;;;;;;6.38;1.20;;;8.80;1.00;;;;;;20751699;28;20071;-48
2023/11/25 14:11:11;;;;;;;8.02;1.08;;;8.50;1.00;;;;;;20745543;28;20478;-49
2023/11/25 14:21:13;;;;;;;6.68;1.30;;;8.10;1.00;;;;;;20690347;28;20065;-48
2023/11/25 14:31:13;;;;;;;8.30;0.90;;;8.00;1.00;;;;;;20718188;28;20045;-48
2023/11/25 14:41:23;;;;;;;8.40;1.13;;;7.90;1.00;;;;;;20766941;28;20080;-48
2023/11/25 14:51:23;;;;;;;15.52;1.63;;;7.90;1.00;;;;;;20765483;28;20175;-48
2023/11/25 15:01:24;;;;;;;14.00;1.92;;;7.80;1.00;;;;;;20757735;28;20065;-48
2023/11/25 15:11:24;;;;;;;12.18;1.45;;;7.70;1.00;;;;;;20700482;28;20129;-48
2023/11/25 15:21:25;;;;;;;12.77;1.45;;;7.50;1.00;;;;;;20755001;28;20049;-48
2023/11/25 15:31:26;;;;;;;14.77;1.63;;;7.60;1.00;;;;;;20753415;28;20442;-48
2023/11/25 15:41:27;;;;;;;9.90;1.37;;;7.40;1.00;;;;;;20768428;28;20060;-48
2023/11/25 15:51:27;;;;;;;9.98;1.98;;;7.30;1.00;;;;;;20760542;28;20720;-48
2023/11/25 16:01:28;;;;;;;7.95;1.45;;;7.40;1.00;;;;;;20745768;28;20465;-48
2023/11/25 16:11:32;;;;;;;8.98;1.63;;;7.30;1.00;;;;;;20739818;28;20053;-48
2023/11/25 16:21:32;;;;;;;9.13;1.70;;;7.10;1.00;;;;;;20739558;28;20064;-48
2023/11/25 16:31:33;;;;;;;9.93;1.90;;;6.80;2.00;;;;;;20740044;28;20049;-48
2023/11/25 16:41:34;;;;;;;8.30;1.48;;;6.60;6.80;;;;;;20687933;28;20088;-49
2023/11/25 16:51:34;;;;;;;8.43;1.80;;;6.50;9.80;;;;;;20672535;28;20034;-48
2023/11/25 17:01:35;;;;;;;8.63;1.85;;;6.50;6.90;;;;;;20685006;28;20320;-48
2023/11/25 17:11:35;;;;;;;12.63;2.00;;;6.30;6.70;;;;;;20671716;28;20058;-48
2023/11/25 17:21:36;;;;;;;10.38;1.77;;;6.20;10.40;;;;;;20658585;28;20124;-48
2023/11/25 17:31:37;;;;;;;12.32;2.40;;;6.10;16.60;;;;;;20665091;28;20048;-48
2023/11/25 17:41:38;;;;;;;16.35;4.00;;;6.00;23.00;;;;;;20695831;28;20072;-48
2023/11/25 17:51:38;;;;;;;10.45;3.50;;;5.80;25.90;;;;;;20692688;28;20214;-48
2023/11/25 18:01:39;;;;;;;9.57;2.78;;;5.90;23.10;;;;;;20752536;28;20053;-48
2023/11/25 18:11:40;;;;;;;9.57;2.33;;;5.70;28.80;;;;;;20709206;28;20042;-48
2023/11/25 18:21:41;;;;;;;11.10;3.20;;;5.60;34.60;;;;;;20690818;28;20077;-48
2023/11/25 18:31:42;;;;;;;9.02;2.60;;;5.50;34.10;;;;;;20697736;28;20038;-48
2023/11/25 18:41:43;;;;;;;12.07;1.88;;;5.30;41.70;;;;;;20721810;28;20586;-48
2023/11/25 18:51:43;;;;;;;12.47;2.43;;;5.20;40.60;;;;;;20715784;28;20438;-48
2023/11/25 19:01:44;;;;;;;9.02;2.80;;;5.00;37.70;;;;;;20780675;28;20048;-49
2023/11/25 19:11:48;;;;;;;9.30;3.50;;;4.90;41.40;;;;;;20776484;28;20037;-48
2023/11/25 19:21:49;;;;;;;10.27;3.20;;;4.80;57.00;;;;;;20763358;28;20042;-48
2023/11/25 19:31:49;;;;;;;11.90;3.08;;;5.00;92.80;;;;;;20772840;28;20038;-48
2023/11/25 19:41:50;;;;;;;13.55;4.38;;;5.20;87.80;;;;;;20754912;28;20577;-48
2023/11/25 19:51:53;;;;;;;10.30;2.47;;;5.40;95.50;;;;;;20761811;28;20140;-48
2023/11/25 20:01:54;;;;;;;13.73;4.80;;;5.60;99.90;;;;;;20774179;28;20121;-48
2023/11/25 20:11:57;;;;;;;9.57;3.60;;;5.70;91.50;;;;;;20770608;28;20495;-49
2023/11/25 20:21:58;;;;;;;15.73;4.32;;;5.60;76.40;;;;;;20761533;28;20049;-48
2023/11/25 20:31:58;;;;;;;13.80;4.72;;;5.70;80.60;;;;;;20764349;28;20061;-48
2023/11/25 20:41:59;;;;;;;9.50;3.37;;;5.70;74.50;;;;;;20761359;28;20061;-48
2023/11/25 20:52:00;;;;;;;10.02;3.30;;;5.60;71.20;;;;;;20756442;28;20048;-48
2023/11/25 21:02:00;;;;;;;9.73;3.70;;;5.30;74.10;;;;;;20763295;28;20060;-48
2023/11/25 21:12:01;;;;;;;8.23;3.08;;;5.00;69.80;;;;;;20768571;28;20529;-48
2023/11/25 21:22:01;;;;;;;9.13;2.58;;;4.80;65.60;;;;;;20774984;28;20140;-48
2023/11/25 21:32:07;;;;;;;10.30;2.80;;;4.60;71.20;;;;;;20769191;28;20076;-48
2023/11/25 21:42:08;;;;;;;14.68;3.45;;;4.60;74.50;;;;;;20769899;28;20080;-48
2023/11/25 21:52:08;;;;;;;13.73;4.60;;;4.50;78.50;;;;;;20762395;28;20456;-48
2023/11/25 22:02:09;;;;;;;13.03;4.27;;;4.40;80.20;;;;;;20764460;28;20052;-48
2023/11/25 22:12:09;;;;;;;10.85;3.20;;;4.30;88.80;;;;;;20763980;28;20506;-48
2023/11/25 22:22:11;;;;;;;10.68;3.03;;;4.10;94.00;;;;;;20764369;28;20041;-49
2023/11/25 22:32:12;;;;;;;9.15;3.22;;;4.10;94.30;;;;;;20783618;28;20061;-47
2023/11/25 22:42:13;;;;;;;8.98;3.65;;;4.10;99.70;;;;;;20772939;28;20030;-48
2023/11/25 22:52:14;;;;;;;7.32;2.97;;;4.00;99.90;;;;;;20779941;28;20080;-48
2023/11/25 23:02:14;;;;;;;11.45;3.08;;;4.00;99.90;;;;;;20779945;28;20049;-47
2023/11/25 23:12:15;;;;;;;9.63;3.05;;;3.90;99.90;;;;;;20778916;28;20037;-48
2023/11/25 23:22:16;;;;;;;10.82;3.22;;;3.80;99.90;;;;;;20778591;28;20133;-48
2023/11/25 23:32:16;;;;;;;10.25;2.67;;;3.80;99.90;;;;;;20758331;28;20041;-48
2023/11/25 23:42:17;;;;;;;8.85;4.05;;;3.90;99.90;;;;;;20777907;28;20117;-47
2023/11/25 23:52:17;;;;;;;12.48;3.28;;;3.90;99.90;;;;;;20765075;28;20099;-47
